Time;durP1;ratioP1;P1;durP2;ratioP2;P2;SDS_P1;SDS_P2;PMS_P1;PMS_P2;Temp;Humidity;BMP_temperature;BMP_pressure;BME280_temperature;BME280_humidity;BME280_pressure;Samples;Min_cycle;Max_cycle;Signal;HPM_P1;HPM_P2
2022/12/24 00:01:37;;;;;;;3.85;3.20;;;;;;;4.60;99.87;98772.66;5093704;28;20441;-67
2022/12/24 00:04:06;;;;;;;2.65;2.42;;;;;;;4.60;99.70;98772.66;5096196;28;20077;-67
2022/12/24 00:06:36;;;;;;;3.07;2.20;;;;;;;4.59;99.87;98776.84;5107747;28;20523;-67
2022/12/24 00:09:05;;;;;;;2.13;1.90;;;;;;;4.59;99.61;98776.00;5118324;28;20051;-67
2022/12/24 00:11:33;;;;;;;1.80;1.70;;;;;;;4.59;99.84;98771.78;5098018;28;20048;-67
2022/12/24 00:14:02;;;;;;;2.28;2.08;;;;;;;4.58;99.92;98774.31;5130948;27;20039;-67
2022/12/24 00:16:31;;;;;;;11.73;3.37;;;;;;;4.57;99.81;98778.53;5131524;27;20078;-67
2022/12/24 00:19:00;;;;;;;5.83;3.33;;;;;;;4.59;99.60;98776.84;5117627;28;20043;-66
2022/12/24 00:21:29;;;;;;;3.85;3.55;;;;;;;4.62;99.79;98770.97;5117529;28;20291;-67
2022/12/24 00:23:59;;;;;;;4.60;3.43;;;;;;;4.64;99.55;98784.47;5117789;28;20147;-67
2022/12/24 00:26:28;;;;;;;3.13;2.88;;;;;;;4.64;99.88;98794.56;5112063;27;20040;-67
2022/12/24 00:28:57;;;;;;;6.50;4.03;;;;;;;4.65;99.78;98796.28;5112129;28;20071;-67
2022/12/24 00:31:26;;;;;;;1.92;1.83;;;;;;;4.64;99.80;98790.38;5106908;28;20038;-67
2022/12/24 00:33:54;;;;;;;1.35;1.25;;;;;;;4.63;99.88;98798.75;5109869;28;20039;-67
2022/12/24 00:36:23;;;;;;;2.63;2.43;;;;;;;4.66;100.00;98808.06;5096338;28;20052;-67
2022/12/24 00:38:52;;;;;;;2.70;2.45;;;;;;;4.68;99.86;98771.00;5103827;28;20080;-66
2022/12/24 00:41:27;;;;;;;2.60;2.30;;;;;;;4.80;100.00;98810.72;5109873;28;20118;-66
2022/12/24 00:43:58;;;;;;;4.43;2.85;;;;;;;4.81;99.88;98813.25;5110857;27;20071;-66
2022/12/24 00:46:29;;;;;;;4.32;3.47;;;;;;;4.77;100.00;98821.66;5111962;28;20047;-67
2022/12/24 00:48:58;;;;;;;3.42;3.08;;;;;;;4.74;99.85;98832.56;5100131;28;20395;-66
2022/12/24 00:51:27;;;;;;;1.67;1.58;;;;;;;4.74;99.91;98836.78;5101418;28;20044;-66
2022/12/24 00:53:57;;;;;;;2.30;2.13;;;;;;;4.73;99.78;98813.19;5098106;28;20459;-67
2022/12/24 00:56:27;;;;;;;5.85;4.47;;;;;;;4.72;100.00;98824.13;5098691;28;20040;-66
2022/12/24 00:58:56;;;;;;;9.57;2.67;;;;;;;4.78;100.00;98828.38;5101369;28;20079;-66
2022/12/24 01:01:25;;;;;;;1.37;1.27;;;;;;;4.84;100.00;98838.56;5107783;28;20046;-67
2022/12/24 01:05:09;;;;;;;1.35;1.25;;;;;;;4.92;100.00;98771.19;5106613;28;20037;-64
2022/12/24 01:06:44;;;;;;;1.80;1.65;;;;;;;5.05;99.95;98828.59;5098532;28;20402;-65
2022/12/24 01:09:14;;;;;;;0.88;0.88;;;;;;;5.10;100.00;98837.06;5105349;28;20558;-66
2022/12/24 01:11:45;;;;;;;3.58;1.25;;;;;;;5.23;100.00;98778.13;5106905;28;20040;-66
2022/12/24 01:14:14;;;;;;;0.80;0.80;;;;;;;5.55;100.00;98820.47;5109333;28;20047;-66
2022/12/24 01:16:43;;;;;;;1.20;1.10;;;;;;;5.60;100.00;98875.34;5099907;28;20494;-65
2022/12/24 01:19:12;;;;;;;1.90;1.30;;;;;;;5.62;100.00;98838.22;5103889;28;20046;-65
2022/12/24 01:21:41;;;;;;;1.90;1.70;;;;;;;5.82;100.00;98780.09;5098534;28;20094;-65
2022/12/24 01:24:14;;;;;;;1.40;1.30;;;;;;;5.91;100.00;98800.41;5098365;28;20501;-66
2022/12/24 01:26:44;;;;;;;1.90;1.80;;;;;;;5.92;100.00;98847.69;5104891;28;20044;-65
2022/12/24 01:29:14;;;;;;;2.97;2.70;;;;;;;5.88;100.00;98862.00;5099845;28;20040;-66
2022/12/24 01:31:42;;;;;;;6.05;4.00;;;;;;;5.89;100.00;98812.22;5112774;28;20071;-66
2022/12/24 01:34:11;;;;;;;0.93;0.85;;;;;;;5.89;100.00;98812.22;5112150;28;20070;-66
2022/12/24 01:36:40;;;;;;;7.53;2.88;;;;;;;5.85;100.00;98825.72;5100266;28;20048;-65
2022/12/24 01:39:09;;;;;;;5.18;3.97;;;;;;;5.83;100.00;98837.50;5110822;28;20046;-67
2022/12/24 01:44:21;;;;;;;2.40;2.20;;;;;;;5.71;100.00;98833.22;5103454;28;20044;-67
2022/12/24 01:46:52;;;;;;;2.40;2.20;;;;;;;5.73;100.00;98840.81;5108550;28;20051;-66
2022/12/24 01:49:21;;;;;;;4.60;3.45;;;;;;;5.70;100.00;98815.50;5108377;28;20040;-66
2022/12/24 01:51:55;;;;;;;6.22;2.90;;;;;;;5.73;100.00;98825.63;5098144;28;20048;-66
2022/12/24 01:54:27;;;;;;;1.52;1.42;;;;;;;5.72;100.00;98829.84;5096966;28;20082;-66
2022/12/24 01:57:02;;;;;;;3.22;2.90;;;;;;;5.69;100.00;98828.97;5100015;28;20055;-66
2022/12/24 01:59:35;;;;;;;1.75;1.65;;;;;;;5.68;100.00;98827.31;5094809;28;20036;-66
2022/12/24 02:02:04;;;;;;;3.92;3.63;;;;;;;5.67;100.00;98836.56;5093329;28;20048;-66
2022/12/24 02:04:36;;;;;;;;;;;;;;;5.65;100.00;98837.41;5103570;28;20043;-66
2022/12/24 02:07:05;;;;;;;1.52;1.42;;;;;;;5.64;100.00;98835.72;5111769;28;19947;-67
2022/12/24 02:09:36;;;;;;;4.83;2.67;;;;;;;5.60;100.00;98854.25;5096869;28;20496;-66
2022/12/24 02:12:06;;;;;;;2.70;2.50;;;;;;;5.59;100.00;98857.63;5100454;28;20066;-65
2022/12/24 02:14:37;;;;;;;1.50;1.40;;;;;;;5.57;100.00;98859.28;5101441;28;20036;-65
2022/12/24 02:17:18;;;;;;;3.42;3.13;;;;;;;5.60;100.00;98854.25;5099040;28;20113;-67
2022/12/24 02:20:13;;;;;;;4.65;3.42;;;;;;;5.63;100.00;98851.75;5105317;28;20046;-66
2022/12/24 02:23:06;;;;;;;3.00;2.55;;;;;;;5.61;100.00;98856.81;5097903;28;20052;-65
2022/12/24 02:25:50;;;;;;;2.28;2.08;;;;;;;5.63;100.00;98846.69;5093919;28;20082;-65
2022/12/24 02:28:35;;;;;;;1.73;1.63;;;;;;;5.59;100.00;98842.44;5105406;28;20464;-66
2022/12/24 02:31:10;;;;;;;2.50;2.30;;;;;;;5.57;100.00;98839.03;5115108;28;20047;-65
2022/12/24 02:33:46;;;;;;;2.70;2.50;;;;;;;5.57;100.00;98833.97;5115140;28;20071;-65
2022/12/24 02:36:23;;;;;;;3.35;2.92;;;;;;;5.56;100.00;98822.19;5114950;28;20040;-65
2022/12/24 02:38:59;;;;;;;2.40;1.85;;;;;;;5.58;100.00;98845.81;5115026;28;20116;-65
2022/12/24 02:42:04;;;;;;;1.58;1.48;;;;;;;5.55;100.00;98860.97;5115184;28;20419;-66
2022/12/24 02:44:26;;;;;;;2.40;1.80;;;;;;;5.53;100.00;98866.03;5109892;28;20043;-65
2022/12/24 02:46:59;;;;;;;4.18;3.25;;;;;;;5.51;100.00;98854.19;5104404;28;20441;-66
2022/12/24 02:49:28;;;;;;;4.25;3.65;;;;;;;5.52;100.00;98866.84;5094271;28;20048;-66
2022/12/24 02:51:56;;;;;;;4.10;3.42;;;;;;;5.54;100.00;98866.88;5100438;28;20138;-65
2022/12/24 02:54:25;;;;;;;3.00;2.25;;;;;;;5.53;100.00;98870.22;5113752;28;20056;-65
2022/12/24 02:57:08;;;;;;;2.07;1.87;;;;;;;5.50;100.00;98873.59;5098871;28;20059;-66
2022/12/24 02:59:56;;;;;;;1.88;1.60;;;;;;;5.49;100.00;98876.97;5104787;28;20043;-66
2022/12/24 03:02:38;;;;;;;3.63;3.03;;;;;;;5.48;100.00;98871.88;5109801;28;20048;-66
2022/12/24 03:05:16;;;;;;;2.17;2.05;;;;;;;5.53;100.00;98872.75;5099821;28;20039;-65
2022/12/24 03:07:53;;;;;;;4.13;3.58;;;;;;;5.53;100.00;98868.56;5095167;28;20052;-66
2022/12/24 03:10:27;;;;;;;1.75;1.65;;;;;;;5.53;100.00;98867.69;5096515;28;20023;-66
2022/12/24 03:13:04;;;;;;;3.33;3.03;;;;;;;5.52;100.00;98882.03;5098079;28;20044;-66
2022/12/24 03:15:34;;;;;;;4.85;3.45;;;;;;;5.50;100.00;98875.25;5096460;28;20126;-66
2022/12/24 03:18:08;;;;;;;1.63;1.52;;;;;;;5.48;100.00;98875.28;5098373;28;20519;-66
2022/12/24 03:20:41;;;;;;;4.65;4.18;;;;;;;5.47;100.00;98878.63;5111083;28;20092;-66
2022/12/24 03:23:10;;;;;;;1.75;1.65;;;;;;;5.46;100.00;98879.47;5094114;28;20044;-66
2022/12/24 03:25:42;;;;;;;3.58;2.33;;;;;;;5.45;100.00;98884.53;5093097;28;20040;-67
2022/12/24 03:28:13;;;;;;;2.63;2.42;;;;;;;5.44;100.00;98881.16;5091895;28;20058;-66
2022/12/24 03:30:45;;;;;;;6.07;4.75;;;;;;;5.43;100.00;98876.91;5093007;28;20512;-66
2022/12/24 03:33:17;;;;;;;4.38;4.03;;;;;;;5.41;100.00;98879.44;5096191;28;20038;-66
2022/12/24 03:35:46;;;;;;;1.77;1.52;;;;;;;5.42;100.00;98885.38;5108403;28;20520;-66
2022/12/24 03:38:14;;;;;;;13.40;4.07;;;;;;;5.41;100.00;98884.50;5106963;28;20101;-65
2022/12/24 03:40:43;;;;;;;3.03;2.83;;;;;;;5.39;100.00;98886.19;5110686;28;20044;-67
2022/12/24 03:43:12;;;;;;;1.58;1.48;;;;;;;5.40;100.00;98892.91;5108743;28;20070;-66
2022/12/24 03:45:41;;;;;;;3.28;1.95;;;;;;;5.37;100.00;98887.00;5095705;28;20036;-66
2022/12/24 03:48:10;;;;;;;4.25;3.03;;;;;;;5.34;100.00;98882.78;5103444;28;20524;-65
2022/12/24 03:50:40;;;;;;;2.63;2.42;;;;;;;5.34;100.00;98880.25;5110842;28;20038;-65
2022/12/24 03:53:09;;;;;;;3.10;2.20;;;;;;;5.36;100.00;98891.22;5102693;28;20078;-66
2022/12/24 03:55:38;;;;;;;3.35;3.05;;;;;;;5.39;100.00;98896.31;5095475;28;20126;-67
2022/12/24 03:58:07;;;;;;;;;;;;;;;5.41;100.00;98899.69;5093883;28;20048;-67
2022/12/24 04:00:36;;;;;;;3.42;2.75;;;;;;;5.45;100.00;98903.06;5098642;28;19923;-66
2022/12/24 04:03:05;;;;;;;1.57;1.40;;;;;;;5.48;100.00;98900.56;5109711;28;20054;-66
2022/12/24 04:05:34;;;;;;;4.10;3.72;;;;;;;5.52;100.00;98906.50;5107438;28;20293;-66
2022/12/24 04:08:04;;;;;;;2.47;2.10;;;;;;;5.52;100.00;98906.50;5094825;28;20152;-66
2022/12/24 04:10:32;;;;;;;4.43;3.70;;;;;;;5.56;100.00;98913.28;5101228;28;20040;-66
2022/12/24 04:13:01;;;;;;;4.40;3.93;;;;;;;5.61;100.00;98921.75;5112382;28;20039;-68
2022/12/24 04:15:30;;;;;;;4.83;3.53;;;;;;;5.64;100.00;98917.53;5095997;28;20048;-66
2022/12/24 04:17:59;;;;;;;6.05;3.10;;;;;;;5.64;100.00;98912.47;5107398;28;20044;-67
2022/12/24 04:20:27;;;;;;;5.60;3.00;;;;;;;5.65;100.00;98919.25;5098013;28;20040;-66
2022/12/24 04:22:56;;;;;;;2.90;2.55;;;;;;;5.65;100.00;98918.41;5101021;28;20119;-66
2022/12/24 04:25:26;;;;;;;8.90;2.17;;;;;;;5.63;100.00;98920.94;5103993;28;20047;-66
2022/12/24 04:27:55;;;;;;;6.13;1.98;;;;;;;5.64;100.00;98922.59;5108876;28;20043;-66
2022/12/24 04:30:24;;;;;;;10.73;4.03;;;;;;;5.61;100.00;98912.47;5103116;28;20089;-67
2022/12/24 04:32:53;;;;;;;4.82;4.43;;;;;;;5.65;100.00;98918.41;5098054;28;20127;-66
2022/12/24 04:35:22;;;;;;;3.38;3.13;;;;;;;5.64;100.00;98917.53;5108646;28;20032;-66
2022/12/24 04:37:50;;;;;;;2.63;2.43;;;;;;;5.65;100.00;98925.97;5095113;28;20066;-66
2022/12/24 04:40:19;;;;;;;3.08;2.88;;;;;;;5.64;100.00;98931.91;5106538;28;20036;-66
2022/12/24 04:42:50;;;;;;;4.50;4.10;;;;;;;5.64;100.00;98947.09;5110614;28;20032;-67
2022/12/24 04:45:19;;;;;;;2.65;2.17;;;;;;;5.62;100.00;98943.69;5091458;28;20040;-67
2022/12/24 04:47:49;;;;;;;6.47;4.40;;;;;;;5.59;100.00;98928.50;5091539;28;20064;-66
2022/12/24 04:50:18;;;;;;;1.48;1.38;;;;;;;5.58;100.00;98927.63;5099575;28;20118;-66
2022/12/24 04:52:47;;;;;;;3.75;3.08;;;;;;;5.55;100.00;98931.81;5097207;28;20135;-67
2022/12/24 04:55:15;;;;;;;4.63;4.23;;;;;;;5.50;100.00;98938.53;5098557;28;20209;-66
2022/12/24 04:57:45;;;;;;;3.55;1.67;;;;;;;5.43;100.00;98938.50;5113375;28;20093;-66
2022/12/24 05:00:22;;;;;;;4.15;3.75;;;;;;;5.39;100.00;98931.72;5113649;28;20043;-66
2022/12/24 05:02:51;;;;;;;2.90;2.67;;;;;;;5.34;100.00;98948.56;5115675;28;20047;-66
2022/12/24 05:05:20;;;;;;;3.03;2.30;;;;;;;5.33;100.00;98935.88;5104616;28;20031;-66
2022/12/24 05:07:48;;;;;;;2.47;2.27;;;;;;;5.34;100.00;98928.31;5095950;28;20093;-67
2022/12/24 05:10:17;;;;;;;2.93;2.73;;;;;;;5.36;100.00;98941.81;5106880;28;20318;-66
2022/12/24 05:12:46;;;;;;;1.13;1.08;;;;;;;5.36;100.00;98941.81;5111165;28;20036;-66
2022/12/24 05:15:15;;;;;;;3.45;2.85;;;;;;;5.33;100.00;98949.38;5118401;27;20036;-66
2022/12/24 05:17:45;;;;;;;2.88;2.65;;;;;;;5.33;100.00;98958.63;5096548;28;20516;-66
2022/12/24 05:20:14;;;;;;;4.63;4.25;;;;;;;5.32;100.00;98959.50;5099210;28;20126;-66
2022/12/24 05:28:00;;;;;;;2.63;2.37;;;;;;;5.29;100.00;98975.50;5100061;28;20044;-66
2022/12/24 05:30:28;;;;;;;2.43;2.23;;;;;;;5.26;100.00;98980.50;5108998;28;20036;-66
2022/12/24 05:32:59;;;;;;;6.10;3.70;;;;;;;5.21;100.00;98966.13;5116589;28;20054;-66
2022/12/24 05:35:28;;;;;;;3.25;2.97;;;;;;;5.18;100.00;98966.94;5116525;28;20494;-66
2022/12/24 05:37:58;;;;;;;3.77;3.43;;;;;;;5.14;100.00;98962.69;5116367;28;20074;-66
2022/12/24 05:40:27;;;;;;;6.35;4.50;;;;;;;5.12;100.00;98966.91;5116175;28;20048;-66
2022/12/24 05:42:56;;;;;;;2.70;2.50;;;;;;;5.11;100.00;98970.25;5116067;28;20122;-66
2022/12/24 05:45:24;;;;;;;2.45;1.73;;;;;;;5.14;100.00;98982.94;5114091;28;20067;-66
2022/12/24 05:47:53;;;;;;;3.37;3.07;;;;;;;5.13;100.00;98983.78;5095638;28;20094;-66
2022/12/24 05:50:23;;;;;;;2.15;1.98;;;;;;;5.07;100.00;98973.59;5095534;28;20044;-66
2022/12/24 05:53:05;;;;;;;7.03;4.72;;;;;;;5.12;100.00;98982.06;5107706;28;20405;-66
2022/12/24 05:55:34;;;;;;;5.00;4.55;;;;;;;5.09;100.00;98986.22;5105394;28;20106;-67
2022/12/24 05:58:03;;;;;;;2.78;2.58;;;;;;;5.03;100.00;98982.00;5109284;28;20052;-66
2022/12/24 06:00:32;;;;;;;1.73;1.58;;;;;;;5.03;100.00;98991.25;5100012;28;20055;-66
2022/12/24 06:03:00;;;;;;;5.28;3.97;;;;;;;4.99;100.00;98997.94;5115019;28;20064;-65
2022/12/24 06:05:32;;;;;;;4.97;3.22;;;;;;;4.97;100.00;98991.16;5113350;28;20044;-65
2022/12/24 06:08:00;;;;;;;3.17;2.88;;;;;;;4.95;100.00;98993.69;5103419;28;20040;-66
2022/12/24 06:10:29;;;;;;;3.25;3.05;;;;;;;4.94;100.00;98997.06;5097352;28;20050;-66
2022/12/24 06:12:58;;;;;;;2.77;2.57;;;;;;;4.90;100.00;98995.31;5100533;28;20036;-66
2022/12/24 06:15:26;;;;;;;7.57;4.88;;;;;;;4.85;100.00;98996.94;5104209;28;20039;-66
2022/12/24 06:17:55;;;;;;;2.83;1.77;;;;;;;4.80;100.00;99003.63;5115292;27;20040;-66
2022/12/24 06:20:24;;;;;;;3.15;2.47;;;;;;;4.77;100.00;99007.81;5101362;28;20118;-66
2022/12/24 06:22:55;;;;;;;5.38;4.90;;;;;;;4.78;100.00;99025.53;5110683;28;20046;-66
2022/12/24 06:25:23;;;;;;;7.93;5.20;;;;;;;4.77;100.00;99028.91;5108242;28;20044;-66
2022/12/24 06:27:52;;;;;;;3.17;2.63;;;;;;;4.76;100.00;99032.25;5103055;28;20043;-69
2022/12/24 06:30:21;;;;;;;7.32;3.83;;;;;;;4.74;100.00;99034.75;5100068;28;20135;-66
2022/12/24 06:32:49;;;;;;;2.05;1.88;;;;;;;4.72;100.00;99026.31;5107276;28;20078;-66
2022/12/24 06:35:18;;;;;;;9.10;3.83;;;;;;;4.73;100.00;99027.13;5103150;28;20079;-66
2022/12/24 06:37:47;;;;;;;2.40;2.17;;;;;;;4.73;100.00;99022.09;5111515;27;20477;-66
2022/12/24 06:40:18;;;;;;;2.00;1.85;;;;;;;4.72;100.00;99025.47;5109351;28;20562;-66
2022/12/24 06:42:46;;;;;;;2.47;2.28;;;;;;;4.73;100.00;99027.13;5104072;28;20101;-66
2022/12/24 06:45:17;;;;;;;4.63;4.22;;;;;;;4.73;100.00;99017.03;5102762;28;20040;-66
2022/12/24 06:47:46;;;;;;;1.60;1.50;;;;;;;4.73;100.00;99011.97;5104201;28;20048;-66
2022/12/24 06:50:14;;;;;;;2.85;1.77;;;;;;;4.77;100.00;99028.91;5103302;28;20043;-66
2022/12/24 06:52:43;;;;;;;2.13;2.00;;;;;;;4.77;100.00;99039.00;5107363;28;20056;-66
2022/12/24 06:55:12;;;;;;;3.05;2.83;;;;;;;4.75;100.00;99025.50;5094675;28;20389;-66
2022/12/24 06:57:42;;;;;;;2.35;2.15;;;;;;;4.72;100.00;99030.53;5094429;28;20508;-66
2022/12/24 07:00:12;;;;;;;3.03;2.75;;;;;;;4.71;100.00;99024.59;5112346;28;20047;-66
2022/12/24 07:02:41;;;;;;;1.88;1.77;;;;;;;4.73;100.00;99022.09;5114613;28;20138;-66
2022/12/24 07:05:12;;;;;;;6.43;4.25;;;;;;;4.71;100.00;99021.22;5114497;28;20044;-65
2022/12/24 07:07:42;;;;;;;3.15;2.90;;;;;;;4.71;100.00;99014.50;5122225;27;20043;-66
2022/12/24 07:10:13;;;;;;;1.55;1.45;;;;;;;4.69;100.00;99035.53;5118693;27;20136;-65
2022/12/24 07:12:44;;;;;;;3.40;3.20;;;;;;;4.74;100.00;99038.97;5118020;27;20111;-65
2022/12/24 07:15:13;;;;;;;3.30;2.35;;;;;;;4.87;100.00;99050.06;5134649;27;20051;-66
2022/12/24 07:17:42;;;;;;;0.88;0.88;;;;;;;5.08;100.00;99046.09;5134753;27;20051;-65
2022/12/24 07:20:13;;;;;;;2.92;1.95;;;;;;;5.19;100.00;99059.69;5134872;27;20043;-66
2022/12/24 07:22:43;;;;;;;4.22;3.72;;;;;;;5.26;100.00;99056.41;5134774;27;20053;-66
2022/12/24 07:25:12;;;;;;;2.35;2.15;;;;;;;5.25;100.00;99064.84;5124474;27;20068;-66
2022/12/24 07:27:40;;;;;;;4.68;4.15;;;;;;;5.22;100.00;99053.81;5132220;27;20035;-66
2022/12/24 07:30:12;;;;;;;2.53;2.35;;;;;;;5.20;100.00;99061.41;5114480;27;20112;-67
2022/12/24 07:32:41;;;;;;;2.78;2.58;;;;;;;5.17;100.00;99063.03;5100871;28;20097;-66
2022/12/24 07:35:10;;;;;;;2.87;2.67;;;;;;;5.15;100.00;99063.03;5103723;28;20577;-66
2022/12/24 07:37:39;;;;;;;1.77;1.67;;;;;;;5.11;100.00;99061.28;5093670;28;20063;-66
2022/12/24 07:40:10;;;;;;;4.53;2.13;;;;;;;5.21;100.00;99077.41;5093117;28;20059;-67
2022/12/24 07:42:39;;;;;;;4.15;3.75;;;;;;;5.27;100.00;99078.34;5103753;28;20093;-66
2022/12/24 07:45:08;;;;;;;1.35;1.25;;;;;;;5.32;100.00;99096.94;5104751;28;20048;-66
2022/12/24 07:47:38;;;;;;;;;;;;;;;5.32;100.00;99098.63;5094444;28;20050;-66
2022/12/24 07:50:08;;;;;;;1.80;1.70;;;;;;;5.30;100.00;99098.59;5104011;28;19920;-66
2022/12/24 07:52:37;;;;;;;2.00;1.45;;;;;;;5.29;100.00;99101.97;5093382;28;20079;-66
2022/12/24 07:55:06;;;;;;;2.70;2.50;;;;;;;5.30;100.00;99108.72;5101856;28;20085;-66
2022/12/24 07:57:35;;;;;;;3.90;2.22;;;;;;;5.30;100.00;99106.19;5101485;28;20482;-66
2022/12/24 08:00:05;;;;;;;2.50;2.33;;;;;;;5.34;100.00;99115.53;5099889;28;20079;-70
2022/12/24 08:02:40;;;;;;;8.73;5.70;;;;;;;5.41;100.00;99121.47;5101151;28;20102;-66
2022/12/24 08:05:09;;;;;;;2.60;2.40;;;;;;;5.45;100.00;99124.91;5108414;28;20044;-66
2022/12/24 08:07:38;;;;;;;2.85;2.65;;;;;;;5.46;100.00;99134.19;5112540;28;20490;-66
2022/12/24 08:10:08;;;;;;;2.65;2.45;;;;;;;5.43;100.00;99135.84;5093674;28;20044;-66
2022/12/24 08:12:37;;;;;;;2.50;2.00;;;;;;;5.46;100.00;99129.13;5093757;28;20071;-66
2022/12/24 08:15:07;;;;;;;2.17;1.97;;;;;;;5.49;100.00;99130.00;5093211;28;20044;-65
2022/12/24 08:17:36;;;;;;;4.50;3.17;;;;;;;5.54;100.00;99135.13;5093292;28;20036;-65
2022/12/24 08:20:08;;;;;;;4.23;3.73;;;;;;;5.56;100.00;99130.91;5096749;28;20126;-65
2022/12/24 08:22:36;;;;;;;2.35;2.13;;;;;;;5.60;100.00;99127.56;5113827;28;20717;-65
2022/12/24 08:25:06;;;;;;;5.30;2.72;;;;;;;5.63;100.00;99127.63;5095351;28;20083;-66
2022/12/24 08:27:34;;;;;;;;;;;;;;;5.65;100.00;99133.53;5115453;28;20039;-65
2022/12/24 08:30:04;;;;;;;2.65;2.45;;;;;;;5.66;100.00;99142.84;5112661;28;19924;-66
2022/12/24 08:32:32;;;;;;;2.90;2.70;;;;;;;5.67;100.00;99150.44;5116403;27;20040;-65
2022/12/24 08:35:01;;;;;;;2.13;1.75;;;;;;;5.70;100.00;99154.69;5117774;28;20040;-65
2022/12/24 08:37:31;;;;;;;2.60;2.40;;;;;;;5.76;100.00;99157.28;5117572;28;20114;-65
2022/12/24 08:40:00;;;;;;;1.00;0.98;;;;;;;5.82;100.00;99167.47;5117574;28;20761;-65
2022/12/24 08:42:29;;;;;;;1.27;1.17;;;;;;;5.86;100.00;99161.63;5117311;28;20032;-66
2022/12/24 08:44:57;;;;;;;1.90;1.63;;;;;;;5.88;100.00;99170.06;5117499;28;20039;-66
2022/12/24 08:47:27;;;;;;;0.95;0.93;;;;;;;5.89;100.00;99170.09;5117188;28;20075;-66
2022/12/24 08:49:55;;;;;;;1.02;0.98;;;;;;;6.00;100.00;99168.50;5117404;28;20135;-66
2022/12/24 08:52:24;;;;;;;2.63;2.28;;;;;;;6.22;100.00;99178.81;5117024;28;20066;-66
2022/12/24 08:54:54;;;;;;;2.20;2.00;;;;;;;6.33;100.00;99184.84;5117032;28;20130;-66
2022/12/24 08:57:23;;;;;;;3.08;2.30;;;;;;;6.39;100.00;99184.88;5117929;28;20113;-66
2022/12/24 08:59:52;;;;;;;1.37;1.27;;;;;;;6.39;100.00;99190.81;5116911;28;20493;-66
2022/12/24 09:02:21;;;;;;;2.58;2.15;;;;;;;6.50;100.00;99189.19;5099946;28;20097;-66
2022/12/24 09:04:50;;;;;;;1.48;1.38;;;;;;;6.69;100.00;99183.41;5095485;28;20035;-66
2022/12/24 09:07:19;;;;;;;2.10;1.63;;;;;;;6.88;100.00;99181.84;5106282;28;20123;-67
2022/12/24 09:09:47;;;;;;;1.33;1.23;;;;;;;7.07;100.00;99177.72;5118351;27;20467;-66
2022/12/24 09:12:18;;;;;;;1.92;0.95;;;;;;;7.25;100.00;99172.72;5116762;28;20039;-67
2022/12/24 09:14:46;;;;;;;2.53;1.95;;;;;;;7.46;100.00;99177.91;5134652;27;20050;-64
2022/12/24 09:17:15;;;;;;;1.08;1.02;;;;;;;7.64;100.00;99183.03;5122282;27;20130;-65
2022/12/24 09:19:44;;;;;;;2.05;1.27;;;;;;;7.83;100.00;99194.94;5110552;27;20054;-64
2022/12/24 09:22:13;;;;;;;2.20;2.00;;;;;;;8.01;100.00;99194.13;5107422;28;20119;-65
2022/12/24 09:24:41;;;;;;;1.52;1.42;;;;;;;8.16;100.00;99188.22;5098488;28;20071;-66
2022/12/24 09:27:10;;;;;;;0.77;0.77;;;;;;;8.30;100.00;99186.56;5102170;28;20039;-65
2022/12/24 09:29:40;;;;;;;1.70;1.60;;;;;;;8.49;100.00;99178.09;5102068;28;20409;-66
2022/12/24 09:32:10;;;;;;;4.80;1.55;;;;;;;8.67;100.00;99185.69;5110319;28;20035;-64
2022/12/24 09:34:39;;;;;;;1.23;1.13;;;;;;;8.78;100.00;99182.28;5101753;28;20075;-64
2022/12/24 09:37:08;;;;;;;0.93;0.93;;;;;;;8.83;100.00;99194.97;5095701;28;20071;-64
2022/12/24 09:39:36;;;;;;;0.80;0.70;;;;;;;8.87;100.00;99195.84;5095710;28;20084;-64
2022/12/24 09:42:15;;;;;;;0.60;0.60;;;;;;;8.75;99.11;99161.09;5107302;28;20134;-65
2022/12/24 09:44:49;;;;;;;1.63;1.08;;;;;;;9.05;98.82;99190.69;5116021;28;20040;-65
2022/12/24 09:47:26;;;;;;;1.10;1.05;;;;;;;9.20;98.55;99188.97;5108411;28;20462;-66
2022/12/24 09:49:58;;;;;;;0.32;0.32;;;;;;;9.35;97.99;99201.66;5107043;28;20035;-66
2022/12/24 09:52:33;;;;;;;0.75;0.73;;;;;;;9.54;97.39;99201.56;5106638;28;20067;-64
2022/12/24 09:55:08;;;;;;;0.35;0.35;;;;;;;9.77;96.80;99199.75;5103303;28;20117;-65
2022/12/24 09:57:41;;;;;;;0.30;0.30;;;;;;;9.96;95.47;99207.28;5103351;28;20063;-65
2022/12/24 10:00:21;;;;;;;0.22;0.22;;;;;;;10.15;94.10;99209.75;5098610;28;20119;-65
2022/12/24 10:02:50;;;;;;;0.30;0.30;;;;;;;10.29;92.58;99219.03;5103399;28;20066;-65
2022/12/24 10:05:29;;;;;;;0.50;0.50;;;;;;;10.40;91.29;99214.66;5101467;28;20032;-67
2022/12/24 10:08:11;;;;;;;0.30;0.30;;;;;;;10.54;90.30;99217.97;5104549;28;20891;-66
2022/12/24 10:10:46;;;;;;;0.20;0.20;;;;;;;10.77;89.21;99220.31;5103815;28;20047;-65
2022/12/24 10:13:23;;;;;;;2.65;0.70;;;;;;;10.91;88.03;99220.19;5094324;28;20070;-64
2022/12/24 10:16:00;;;;;;;0.50;0.50;;;;;;;10.97;87.04;99223.53;5095162;28;20068;-65
2022/12/24 10:18:36;;;;;;;0.50;0.50;;;;;;;11.00;86.02;99231.16;5093838;28;20040;-65
2022/12/24 10:21:13;;;;;;;0.73;0.73;;;;;;;10.98;85.16;99225.22;5099723;28;20040;-66
2022/12/24 10:23:47;;;;;;;1.33;1.23;;;;;;;10.95;84.80;99224.41;5106524;28;20036;-65
2022/12/24 10:26:24;;;;;;;3.83;1.02;;;;;;;10.93;84.37;99232.06;5100967;28;20493;-64
2022/12/24 10:28:57;;;;;;;0.50;0.50;;;;;;;10.88;84.38;99245.75;5105837;28;20079;-65
2022/12/24 10:31:32;;;;;;;0.50;0.50;;;;;;;10.80;83.84;99242.44;5107580;28;20130;-64
2022/12/24 10:34:05;;;;;;;0.63;0.63;;;;;;;10.74;83.43;99241.63;5112012;28;20047;-64
2022/12/24 10:36:34;;;;;;;0.93;0.45;;;;;;;10.68;83.04;99249.31;5101440;28;20511;-66
2022/12/24 10:39:02;;;;;;;0.65;0.60;;;;;;;10.61;82.78;99259.56;5098257;28;20127;-65
2022/12/24 10:41:34;;;;;;;2.27;0.97;;;;;;;10.49;82.98;99257.97;5097638;27;20036;-65
2022/12/24 10:44:05;;;;;;;0.35;0.35;;;;;;;10.39;83.49;99256.31;5109102;28;20040;-65
2022/12/24 10:46:39;;;;;;;0.30;0.30;;;;;;;10.34;82.98;99260.63;5110754;28;20126;-65
2022/12/24 10:49:14;;;;;;;0.30;0.30;;;;;;;10.25;82.64;99260.69;5105779;28;20055;-65
2022/12/24 10:51:49;;;;;;;0.20;0.20;;;;;;;10.16;82.81;99265.84;5096986;28;20075;-66
2022/12/24 10:54:20;;;;;;;1.17;1.08;;;;;;;10.09;83.10;99282.00;5093030;28;20517;-65
2022/12/24 10:56:58;;;;;;;1.33;1.23;;;;;;;10.02;83.11;99280.34;5093062;28;20080;-65
2022/12/24 10:59:29;;;;;;;2.10;1.67;;;;;;;9.96;83.16;99282.91;5099290;28;20127;-65
2022/12/24 11:02:01;;;;;;;4.30;0.82;;;;;;;9.90;83.54;99294.00;5106401;28;20040;-65
2022/12/24 11:04:32;;;;;;;0.55;0.55;;;;;;;9.86;83.77;99291.47;5094769;28;20036;-65
2022/12/24 11:07:03;;;;;;;0.60;0.60;;;;;;;9.82;83.83;99289.75;5095378;28;20040;-65
2022/12/24 11:09:35;;;;;;;2.15;1.35;;;;;;;9.77;83.90;99302.53;5093917;28;20044;-65
2022/12/24 11:12:06;;;;;;;2.40;0.98;;;;;;;9.73;83.85;99300.00;5093413;28;20134;-65
2022/12/24 11:14:40;;;;;;;0.20;0.20;;;;;;;9.64;84.18;99297.50;5099987;28;20055;-65
2022/12/24 11:17:21;;;;;;;1.73;1.63;;;;;;;9.67;84.44;99315.31;5105677;28;20044;-65
2022/12/24 11:19:51;;;;;;;1.65;1.05;;;;;;;9.64;84.20;99300.03;5093702;28;20068;-65
2022/12/24 11:22:24;;;;;;;0.40;0.40;;;;;;;9.68;84.15;99317.00;5113778;28;20074;-65
2022/12/24 11:25:03;;;;;;;0.30;0.30;;;;;;;9.66;83.90;99319.56;5097609;28;20085;-65
2022/12/24 11:27:40;;;;;;;1.15;1.05;;;;;;;9.65;83.74;99332.28;5109367;28;20043;-66
2022/12/24 11:30:26;;;;;;;1.80;1.23;;;;;;;9.59;83.62;99332.31;5105621;28;20040;-66
2022/12/24 11:33:15;;;;;;;0.38;0.38;;;;;;;9.52;84.07;99326.41;5093675;28;20094;-65
2022/12/24 11:35:50;;;;;;;0.30;0.30;;;;;;;9.47;84.22;99342.53;5109830;28;20550;-65
2022/12/24 11:38:22;;;;;;;1.13;1.08;;;;;;;9.43;84.38;99346.78;5108864;28;20043;-65
2022/12/24 11:41:00;;;;;;;0.30;0.30;;;;;;;9.42;85.15;99340.84;5090766;28;20044;-65
2022/12/24 11:43:44;;;;;;;0.20;0.20;;;;;;;9.45;84.83;99345.09;5096636;28;20223;-65
2022/12/24 11:46:36;;;;;;;0.45;0.45;;;;;;;9.47;84.54;99343.38;5095633;28;20063;-66
2022/12/24 11:49:22;;;;;;;0.50;0.50;;;;;;;9.49;84.27;99345.94;5106784;28;20043;-65
2022/12/24 11:52:11;;;;;;;0.38;0.38;;;;;;;9.45;84.43;99351.00;5104303;28;20062;-65
2022/12/24 11:54:51;;;;;;;1.88;1.77;;;;;;;9.45;85.14;99345.91;5093473;28;20497;-66
2022/12/24 11:57:24;;;;;;;2.47;2.28;;;;;;;9.48;84.92;99354.44;5113483;28;20055;-65
2022/12/24 11:59:52;;;;;;;0.77;0.77;;;;;;;9.50;84.75;99365.47;5094681;28;20063;-65
2022/12/24 12:02:26;;;;;;;0.77;0.77;;;;;;;9.49;85.10;99351.00;5097261;28;20044;-65
2022/12/24 12:04:59;;;;;;;0.70;0.70;;;;;;;9.64;85.00;99353.53;5107685;28;20120;-65